createdAt,value
2019-06-10T00:00:22.632Z,3.13
2019-06-10T00:02:50.812Z,2.80
2019-06-10T00:05:17.637Z,2.40
2019-06-10T00:07:44.512Z,3.50
2019-06-10T00:10:13.398Z,2.67
2019-06-10T00:12:41.956Z,2.87
2019-06-10T00:15:10.825Z,2.57
2019-06-10T00:17:52.394Z,2.40
2019-06-10T00:20:08.205Z,3.00
2019-06-10T00:22:35.273Z,2.77
2019-06-10T00:25:05.807Z,2.60
2019-06-10T00:27:33.343Z,2.70
2019-06-10T00:30:02.591Z,2.80
2019-06-10T00:32:32.020Z,2.93
2019-06-10T00:34:59.411Z,2.67
2019-06-10T00:37:27.119Z,2.60
2019-06-10T00:39:54.122Z,2.50
2019-06-10T00:42:21.599Z,2.70
2019-06-10T00:44:50.802Z,3.00
2019-06-10T00:47:17.049Z,3.10
2019-06-10T00:49:43.664Z,2.53
2019-06-10T00:52:12.159Z,2.63
2019-06-10T00:54:41.578Z,2.60
2019-06-10T00:57:07.741Z,2.97
2019-06-10T00:59:34.455Z,2.27
2019-06-10T01:02:02.960Z,2.40
2019-06-10T01:04:31.884Z,2.77
2019-06-10T01:07:00.627Z,2.90
2019-06-10T01:09:27.021Z,2.50
2019-06-10T01:11:53.933Z,2.53
2019-06-10T01:14:21.520Z,2.57
2019-06-10T01:16:50.638Z,2.37
2019-06-10T01:19:17.729Z,2.83
2019-06-10T01:21:44.364Z,2.67
2019-06-10T01:24:12.101Z,2.50
2019-06-10T01:26:41.189Z,3.07
2019-06-10T01:29:08.242Z,2.30
2019-06-10T01:31:34.856Z,2.77
2019-06-10T01:34:05.491Z,2.20
2019-06-10T01:36:32.246Z,2.37
2019-06-10T01:39:01.401Z,2.60
2019-06-10T01:41:27.583Z,2.60
2019-06-10T01:43:54.208Z,2.33
2019-06-10T01:46:21.267Z,2.50
2019-06-10T01:48:48.636Z,2.27
2019-06-10T01:51:17.436Z,2.70
2019-06-10T01:53:46.028Z,2.80
2019-06-10T01:56:15.461Z,2.67
2019-06-10T01:58:41.623Z,2.57
2019-06-10T02:01:13.431Z,2.10
2019-06-10T02:03:41.379Z,2.63
2019-06-10T02:06:08.785Z,2.40
2019-06-10T02:08:35.741Z,2.20
2019-06-10T02:11:02.593Z,2.17
2019-06-10T02:14:25.763Z,2.30
2019-06-10T02:16:53.477Z,2.17
2019-06-10T02:19:22.783Z,2.63
2019-06-10T02:21:50.942Z,2.50
2019-06-10T02:24:17.957Z,2.20
2019-06-10T02:26:45.968Z,2.37
2019-06-10T02:29:14.300Z,2.30
2019-06-10T02:31:43.296Z,2.00
2019-06-10T02:34:13.358Z,1.80
2019-06-10T02:36:38.708Z,2.40
2019-06-10T02:39:07.488Z,2.00
2019-06-10T02:41:36.612Z,2.80
2019-06-10T02:44:05.791Z,2.23
2019-06-10T02:46:35.971Z,2.50
2019-06-10T02:49:17.599Z,2.40
2019-06-10T02:51:31.444Z,2.57
2019-06-10T02:53:58.546Z,2.47
2019-06-10T02:56:28.413Z,2.53
2019-06-10T02:58:54.043Z,2.53
2019-06-10T03:01:23.331Z,2.10
2019-06-10T03:03:53.326Z,2.13
2019-06-10T03:06:21.324Z,2.27
2019-06-10T03:08:46.993Z,2.03
2019-06-10T03:11:14.311Z,2.30
2019-06-10T03:13:42.631Z,2.10
2019-06-10T03:16:10.304Z,2.13
2019-06-10T03:18:36.991Z,2.60
2019-06-10T03:21:03.703Z,2.43
2019-06-10T03:23:32.110Z,2.50
2019-06-10T03:26:00.225Z,2.23
2019-06-10T03:28:27.806Z,2.27
2019-06-10T03:30:58.963Z,2.17
2019-06-10T03:33:31.522Z,2.37
2019-06-10T03:35:52.916Z,1.73
2019-06-10T03:38:23.096Z,2.17
2019-06-10T03:40:49.355Z,2.40
2019-06-10T03:43:16.703Z,2.50
2019-06-10T03:45:45.293Z,2.10
2019-06-10T03:48:13.126Z,2.40
2019-06-10T03:50:43.149Z,2.20
2019-06-10T03:53:12.655Z,2.10
2019-06-10T03:55:38.692Z,2.03
2019-06-10T03:58:05.356Z,2.27
2019-06-10T04:00:32.707Z,2.67
2019-06-10T04:02:59.838Z,2.00
2019-06-10T04:05:27.399Z,2.83
2019-06-10T04:07:55.073Z,2.00
2019-06-10T04:10:24.408Z,2.27
2019-06-10T04:12:52.368Z,2.73
2019-06-10T04:15:19.746Z,2.10
2019-06-10T04:17:46.436Z,2.33
2019-06-10T04:20:15.582Z,2.00
2019-06-10T04:22:44.489Z,2.00
2019-06-10T04:25:12.215Z,1.97
2019-06-10T04:27:39.133Z,2.13
2019-06-10T04:30:06.410Z,2.10
2019-06-10T04:32:33.122Z,2.20
2019-06-10T04:35:02.094Z,1.83
2019-06-10T04:37:29.483Z,2.10
2019-06-10T04:39:57.585Z,1.70
2019-06-10T04:42:26.100Z,1.80
2019-06-10T04:44:53.309Z,1.50
2019-06-10T04:47:21.314Z,1.60
2019-06-10T04:49:48.629Z,1.83
2019-06-10T04:52:15.181Z,1.60
2019-06-10T04:54:42.189Z,2.00
2019-06-10T04:57:09.034Z,1.80
2019-06-10T04:59:35.646Z,2.23
2019-06-10T05:02:05.520Z,1.60
2019-06-10T05:04:32.890Z,1.60
2019-06-10T05:07:02.129Z,1.67
2019-06-10T05:09:30.583Z,2.03
2019-06-10T05:12:02.832Z,1.30
2019-06-10T05:14:30.366Z,1.70
2019-06-10T05:16:58.431Z,1.57
2019-06-10T05:19:26.433Z,1.43
2019-06-10T05:21:53.870Z,1.73
2019-06-10T05:24:24.671Z,1.60
2019-06-10T05:26:49.119Z,1.90
2019-06-10T05:29:15.942Z,1.37
2019-06-10T05:31:43.621Z,1.50
2019-06-10T05:34:13.044Z,1.40
2019-06-10T05:36:39.485Z,1.63
2019-06-10T05:39:06.435Z,1.30
2019-06-10T05:41:35.103Z,1.50
2019-06-10T05:44:02.701Z,1.50
2019-06-10T05:46:30.289Z,1.87
2019-06-10T05:48:58.319Z,1.30
2019-06-10T05:51:26.402Z,1.50
2019-06-10T05:53:53.402Z,1.50
2019-06-10T05:56:21.935Z,1.90
2019-06-10T05:58:48.468Z,1.60
2019-06-10T06:01:15.128Z,1.67
2019-06-10T06:03:43.845Z,1.60
2019-06-10T06:06:12.489Z,1.50
2019-06-10T06:08:39.437Z,1.70
2019-06-10T06:11:06.314Z,1.50
2019-06-10T06:13:35.915Z,1.60
2019-06-10T06:16:03.380Z,1.90
2019-06-10T06:18:33.196Z,2.07
2019-06-10T06:20:59.156Z,1.80
2019-06-10T06:23:26.899Z,1.50
2019-06-10T06:25:54.109Z,2.27
2019-06-10T06:28:22.906Z,1.60
2019-06-10T06:30:49.647Z,1.60
2019-06-10T06:33:16.366Z,1.57
2019-06-10T06:35:46.358Z,1.60
2019-06-10T06:38:12.983Z,2.37
2019-06-10T06:40:39.888Z,1.50
2019-06-10T06:43:06.664Z,1.63
2019-06-10T06:45:35.862Z,1.23
2019-06-10T06:48:03.017Z,1.60
2019-06-10T06:50:30.843Z,1.53
2019-06-10T06:53:19.742Z,1.50
2019-06-10T06:55:28.422Z,1.60
2019-06-10T06:57:55.544Z,0.93
2019-06-10T07:00:43.150Z,1.60
2019-06-10T07:02:56.400Z,1.70
2019-06-10T07:05:23.018Z,1.50
2019-06-10T07:07:52.732Z,1.70
2019-06-10T07:10:22.714Z,1.47
2019-06-10T07:12:52.338Z,1.70
2019-06-10T07:15:24.989Z,1.93
2019-06-10T07:17:52.636Z,1.50
2019-06-10T07:20:23.025Z,1.47
2019-06-10T07:22:49.879Z,1.13
2019-06-10T07:25:16.582Z,1.20
2019-06-10T07:27:46.460Z,1.50
2019-06-10T07:30:15.034Z,1.27
2019-06-10T07:32:46.850Z,2.00
2019-06-10T07:35:12.839Z,1.30
2019-06-10T07:37:39.441Z,1.30
2019-06-10T07:40:07.364Z,1.30
2019-06-10T07:42:34.889Z,1.77
2019-06-10T07:45:05.810Z,1.50
2019-06-10T07:47:33.837Z,1.57
2019-06-10T07:50:03.022Z,1.53
2019-06-10T07:52:29.699Z,1.47
2019-06-10T07:54:56.279Z,1.77
2019-06-10T07:57:22.935Z,1.80
2019-06-10T07:59:52.095Z,2.03
2019-06-10T08:02:18.125Z,1.40
2019-06-10T08:04:46.013Z,1.70
2019-06-10T08:07:13.255Z,1.93
2019-06-10T08:09:41.681Z,1.63
2019-06-10T08:12:08.743Z,1.87
2019-06-10T08:14:35.463Z,1.80
2019-06-10T08:17:03.107Z,1.80
2019-06-10T08:19:35.848Z,2.07
2019-06-10T08:21:58.690Z,2.00
2019-06-10T08:24:25.409Z,1.90
2019-06-10T08:26:53.031Z,2.00
2019-06-10T08:29:19.906Z,2.50
2019-06-10T08:31:48.460Z,2.30
2019-06-10T08:34:15.302Z,2.13
2019-06-10T08:36:46.108Z,2.77
2019-06-10T08:39:15.078Z,2.07
2019-06-10T08:41:40.597Z,2.63
2019-06-10T08:45:04.371Z,2.00
2019-06-10T08:47:32.622Z,2.50
2019-06-10T08:49:59.565Z,3.00
2019-06-10T08:52:26.636Z,2.73
2019-06-10T08:54:54.428Z,2.90
2019-06-10T08:57:23.895Z,2.60
2019-06-10T08:59:53.166Z,3.03
2019-06-10T09:02:19.032Z,3.13
2019-06-10T09:04:48.805Z,3.13
2019-06-10T09:07:14.551Z,3.00
2019-06-10T09:09:43.772Z,3.00
2019-06-10T09:12:27.722Z,3.13
2019-06-10T09:14:38.697Z,2.70
2019-06-10T09:17:05.492Z,3.07
2019-06-10T09:19:33.177Z,3.70
2019-06-10T09:22:03.228Z,3.50
2019-06-10T09:24:29.329Z,3.70
2019-06-10T09:26:56.101Z,3.67
2019-06-10T09:29:22.761Z,3.67
2019-06-10T09:31:52.530Z,3.30
2019-06-10T09:34:18.191Z,4.23
2019-06-10T09:36:47.978Z,3.77
2019-06-10T09:39:13.389Z,4.27
2019-06-10T09:41:45.221Z,4.47
2019-06-10T09:44:09.252Z,4.03
2019-06-10T09:46:38.379Z,4.20
2019-06-10T09:49:05.343Z,3.90
2019-06-10T09:51:32.593Z,3.97
2019-06-10T09:54:03.607Z,4.05
2019-06-10T09:56:28.281Z,4.70
2019-06-10T09:58:57.059Z,4.30
2019-06-10T10:01:24.688Z,4.20
2019-06-10T10:03:59.362Z,4.40
2019-06-10T10:06:23.557Z,3.87
2019-06-10T10:08:56.262Z,4.58
2019-06-10T10:11:18.761Z,4.10
2019-06-10T10:13:48.041Z,4.42
2019-06-10T10:16:14.623Z,4.78
2019-06-10T10:18:45.866Z,4.28
2019-06-10T10:21:10.107Z,4.75
2019-06-10T10:23:51.351Z,4.90
2019-06-10T10:26:05.895Z,4.70
2019-06-10T10:28:33.518Z,4.60
2019-06-10T10:31:03.539Z,4.80
2019-06-10T10:33:30.836Z,4.87
2019-06-10T10:35:57.897Z,5.67
2019-06-10T10:38:24.753Z,4.40
2019-06-10T10:40:56.436Z,5.15
2019-06-10T10:43:28.994Z,4.22
2019-06-10T10:45:51.799Z,4.85
2019-06-10T10:48:18.648Z,4.37
2019-06-10T10:50:47.401Z,4.75
2019-06-10T10:53:14.591Z,5.05
2019-06-10T10:55:42.526Z,4.80
2019-06-10T10:58:12.722Z,5.08
2019-06-10T11:00:45.400Z,5.22
2019-06-10T11:03:13.352Z,4.67
2019-06-10T11:05:40.910Z,5.22
2019-06-10T11:08:08.208Z,4.70
2019-06-10T11:10:35.406Z,4.83
2019-06-10T11:13:06.584Z,4.62
2019-06-10T11:15:33.924Z,4.90
2019-06-10T11:18:03.825Z,4.92
2019-06-10T11:20:33.499Z,4.37
2019-06-10T11:22:59.827Z,4.62
2019-06-10T11:25:26.391Z,4.85
2019-06-10T11:27:55.717Z,4.95
2019-06-10T11:30:23.505Z,4.87
2019-06-10T11:32:53.545Z,4.67
2019-06-10T11:35:19.742Z,5.20
2019-06-10T11:37:46.824Z,5.30
2019-06-10T11:40:14.171Z,4.83
2019-06-10T11:42:43.529Z,5.37
2019-06-10T11:45:11.643Z,5.35
2019-06-10T11:47:38.624Z,6.05
2019-06-10T11:50:06.245Z,4.92
2019-06-10T11:52:33.611Z,5.15
2019-06-10T11:55:11.903Z,5.33
2019-06-10T11:57:29.072Z,5.30
2019-06-10T11:59:56.579Z,5.30
2019-06-10T12:02:24.386Z,5.45
2019-06-10T12:04:53.368Z,5.15
2019-06-10T12:07:22.233Z,5.17
2019-06-10T12:09:48.963Z,5.60
2019-06-10T12:12:15.783Z,5.75
2019-06-10T12:14:43.149Z,5.33
2019-06-10T12:17:24.693Z,5.15
2019-06-10T12:19:38.890Z,5.20
2019-06-10T12:22:07.634Z,5.28
2019-06-10T12:24:34.430Z,5.22
2019-06-10T12:27:04.811Z,5.45
2019-06-10T12:29:30.053Z,5.17
2019-06-10T12:32:01.220Z,5.33
2019-06-10T12:34:25.322Z,5.87
2019-06-10T12:36:56.227Z,6.05
2019-06-10T12:39:22.878Z,5.83
2019-06-10T12:41:49.085Z,5.75
2019-06-10T12:44:15.939Z,5.85
2019-06-10T12:46:43.330Z,5.55
2019-06-10T12:49:12.839Z,5.70
2019-06-10T12:51:39.213Z,5.67
2019-06-10T12:54:06.610Z,5.42
2019-06-10T12:56:33.796Z,5.37
2019-06-10T12:59:02.828Z,5.80
2019-06-10T13:01:29.468Z,6.08
2019-06-10T13:03:57.541Z,5.47
2019-06-10T13:06:26.435Z,5.72
2019-06-10T13:08:56.307Z,5.35
2019-06-10T13:11:24.505Z,4.70
2019-06-10T13:13:53.050Z,5.83
2019-06-10T13:16:19.966Z,6.15
2019-06-10T13:18:46.628Z,5.97
2019-06-10T13:21:17.413Z,5.40
2019-06-10T13:23:43.225Z,5.47
2019-06-10T13:26:15.264Z,5.53
2019-06-10T13:28:39.235Z,5.45
2019-06-10T13:31:08.404Z,4.90
2019-06-10T13:33:35.944Z,5.08
2019-06-10T13:36:06.394Z,5.40
2019-06-10T13:38:33.200Z,5.40
2019-06-10T13:41:01.735Z,4.90
2019-06-10T13:43:28.900Z,5.17
2019-06-10T13:45:55.731Z,5.40
2019-06-10T13:48:23.310Z,5.05
2019-06-10T13:50:52.858Z,5.05
2019-06-10T13:53:19.984Z,5.37
2019-06-10T13:55:46.745Z,5.47
2019-06-10T13:58:14.712Z,4.83
2019-06-10T14:00:46.260Z,5.25
2019-06-10T14:03:15.851Z,5.72
2019-06-10T14:05:38.908Z,4.53
2019-06-10T14:08:09.361Z,5.17
2019-06-10T14:10:35.328Z,4.75
2019-06-10T14:13:03.988Z,5.65
2019-06-10T14:15:32.910Z,5.70
2019-06-10T14:18:01.115Z,5.33
2019-06-10T14:20:28.535Z,5.62
2019-06-10T14:22:55.206Z,5.65
2019-06-10T14:25:23.254Z,5.00
2019-06-10T14:27:53.176Z,5.50
2019-06-10T14:30:20.008Z,5.00
2019-06-10T14:32:46.601Z,5.00
2019-06-10T14:35:17.233Z,5.20
2019-06-10T14:37:43.139Z,4.85
2019-06-10T14:40:18.528Z,5.08
2019-06-10T14:42:39.439Z,5.28
2019-06-10T14:45:08.690Z,5.30
2019-06-10T14:47:36.067Z,4.83
2019-06-10T14:50:10.893Z,5.10
2019-06-10T14:52:38.250Z,5.50
2019-06-10T14:55:07.200Z,5.25
2019-06-10T14:57:34.057Z,5.53
2019-06-10T15:00:02.936Z,5.40
2019-06-10T15:02:29.991Z,5.22
2019-06-10T15:04:59.367Z,4.50
2019-06-10T15:07:26.018Z,4.90
2019-06-10T15:09:52.765Z,5.25
2019-06-10T15:12:20.638Z,5.78
2019-06-10T15:14:48.173Z,5.78
2019-06-10T15:17:16.673Z,5.15
2019-06-10T15:19:43.636Z,4.97
2019-06-10T15:22:12.645Z,4.95
2019-06-10T15:24:39.189Z,4.72
2019-06-10T15:27:13.130Z,5.00
2019-06-10T15:29:34.813Z,4.78
2019-06-10T15:32:10.500Z,4.80
2019-06-10T15:34:32.552Z,4.75
2019-06-10T15:36:59.017Z,5.28
2019-06-10T15:39:25.695Z,5.05
2019-06-10T15:41:52.420Z,4.75
2019-06-10T15:44:37.245Z,4.87
2019-06-10T15:46:52.459Z,4.90
2019-06-10T15:49:21.814Z,5.60
2019-06-10T15:51:48.521Z,5.10
2019-06-10T15:54:17.342Z,5.45
2019-06-10T15:56:49.908Z,5.12
2019-06-10T15:59:14.919Z,4.72
2019-06-10T16:01:42.572Z,5.03
2019-06-10T16:04:09.211Z,4.95
2019-06-10T16:06:35.888Z,4.90
2019-06-10T16:09:06.692Z,5.08
2019-06-10T16:11:35.196Z,5.08
2019-06-10T16:14:02.880Z,4.90
2019-06-10T16:16:32.421Z,5.05
2019-06-10T16:18:58.962Z,4.90
2019-06-10T16:21:25.775Z,5.15
2019-06-10T16:23:53.378Z,5.37
2019-06-10T16:26:20.295Z,5.12
2019-06-10T16:28:47.193Z,5.22
2019-06-10T16:31:15.278Z,4.53
2019-06-10T16:33:49.325Z,4.60
2019-06-10T16:36:12.242Z,4.83
2019-06-10T16:38:39.162Z,5.33
2019-06-10T16:41:05.944Z,4.60
2019-06-10T16:43:33.693Z,5.08
2019-06-10T16:46:03.066Z,4.50
2019-06-10T16:49:26.984Z,4.35
2019-06-10T16:51:53.632Z,5.05
2019-06-10T16:54:23.591Z,4.53
2019-06-10T16:56:49.310Z,4.80
2019-06-10T16:59:16.065Z,5.05
2019-06-10T17:01:43.022Z,4.80
2019-06-10T17:04:12.281Z,4.53
2019-06-10T17:06:38.272Z,4.47
2019-06-10T17:09:07.253Z,4.83
2019-06-10T17:11:35.179Z,5.17
2019-06-10T17:14:03.316Z,4.92
2019-06-10T17:16:30.074Z,4.90
2019-06-10T17:18:56.683Z,4.80
2019-06-10T17:21:27.983Z,5.40
2019-06-10T17:23:52.534Z,5.25
2019-06-10T17:26:23.738Z,5.22
2019-06-10T17:28:48.426Z,5.53
2019-06-10T17:31:15.846Z,4.80
2019-06-10T17:33:42.870Z,5.35
2019-06-10T17:36:12.459Z,5.17
2019-06-10T17:38:38.502Z,5.03
2019-06-10T17:41:05.414Z,5.42
2019-06-10T17:43:34.200Z,5.37
2019-06-10T17:46:03.130Z,5.80
2019-06-10T17:48:31.389Z,5.55
2019-06-10T17:50:59.188Z,5.05
2019-06-10T17:53:26.184Z,5.17
2019-06-10T17:55:53.207Z,4.87
2019-06-10T17:58:33.498Z,5.42
2019-06-10T18:00:48.948Z,5.80
2019-06-10T18:03:15.733Z,5.90
2019-06-10T18:05:42.682Z,5.42
2019-06-10T18:08:09.566Z,5.45
2019-06-10T18:10:36.361Z,5.17
2019-06-10T18:13:42.907Z,6.35
2019-06-10T18:16:09.452Z,5.78
2019-06-10T18:18:37.288Z,5.25
2019-06-10T18:21:04.657Z,5.17
2019-06-10T18:23:31.383Z,5.17
2019-06-10T18:25:58.053Z,7.13
2019-06-10T18:28:24.996Z,6.10
2019-06-10T18:30:53.286Z,5.80
2019-06-10T18:33:23.107Z,5.97
2019-06-10T18:35:49.270Z,5.92
2019-06-10T18:39:15.342Z,5.67
2019-06-10T18:41:43.870Z,5.70
2019-06-10T18:44:22.006Z,5.90
2019-06-10T18:46:43.387Z,5.37
2019-06-10T18:49:13.291Z,5.50
2019-06-10T18:51:39.937Z,5.57
2019-06-10T18:54:09.915Z,5.90
2019-06-10T18:56:37.434Z,6.13
2019-06-10T18:59:16.732Z,5.33
2019-06-10T19:01:36.834Z,6.43
2019-06-10T19:04:05.883Z,6.63
2019-06-10T19:06:36.524Z,6.20
2019-06-10T19:09:12.607Z,5.70
2019-06-10T19:11:40.070Z,6.60
2019-06-10T19:14:08.972Z,5.40
2019-06-10T19:16:42.953Z,5.90
2019-06-10T19:19:12.505Z,6.20
2019-06-10T19:21:44.393Z,6.20
2019-06-10T19:24:12.982Z,5.80
2019-06-10T19:26:42.650Z,6.33
2019-06-10T19:29:09.902Z,6.20
2019-06-10T19:31:39.774Z,6.73
2019-06-10T19:35:03.142Z,6.10
2019-06-10T19:37:34.364Z,6.33
2019-06-10T19:40:04.342Z,6.37
2019-06-10T19:42:34.442Z,6.43
2019-06-10T19:46:00.479Z,5.90
2019-06-10T19:48:28.455Z,6.13
2019-06-10T19:50:57.133Z,6.33
2019-06-10T19:53:26.837Z,7.00
2019-06-10T19:55:53.514Z,6.13
2019-06-10T19:58:22.996Z,6.00
2019-06-10T20:00:54.037Z,7.17
2019-06-10T20:03:19.252Z,6.93
2019-06-10T20:05:46.988Z,7.73
2019-06-10T20:08:15.574Z,7.23
2019-06-10T20:10:42.553Z,7.93
2019-06-10T20:13:10.900Z,6.73
2019-06-10T20:15:46.669Z,6.20
2019-06-10T20:18:14.063Z,6.67
2019-06-10T20:20:45.643Z,6.37
2019-06-10T20:23:16.400Z,6.83
2019-06-10T20:25:46.753Z,6.63
2019-06-10T20:28:14.268Z,6.23
2019-06-10T20:30:43.851Z,7.67
2019-06-10T20:33:13.486Z,6.53
2019-06-10T20:35:42.085Z,6.33
2019-06-10T20:38:08.437Z,6.43
2019-06-10T20:40:35.692Z,6.40
2019-06-10T20:43:03.326Z,6.43
2019-06-10T20:45:32.915Z,6.93
2019-06-10T20:47:58.963Z,6.97
2019-06-10T20:50:25.899Z,6.87
2019-06-10T20:52:52.624Z,6.93
2019-06-10T20:55:19.476Z,6.47
2019-06-10T20:57:56.604Z,6.20
2019-06-10T21:00:23.703Z,7.37
2019-06-10T21:02:51.000Z,6.37
2019-06-10T21:05:18.117Z,6.17
2019-06-10T21:07:46.884Z,6.73
2019-06-10T21:10:22.147Z,6.83
2019-06-10T21:12:49.780Z,7.27
2019-06-10T21:15:18.616Z,6.23
2019-06-10T21:17:46.350Z,6.17
2019-06-10T21:20:14.318Z,6.43
2019-06-10T21:22:42.993Z,6.07
2019-06-10T21:25:09.754Z,6.23
2019-06-10T21:27:36.465Z,6.67
2019-06-10T21:30:11.340Z,5.93
2019-06-10T21:32:34.842Z,6.07
2019-06-10T21:35:04.454Z,6.17
2019-06-10T21:37:32.009Z,5.93
2019-06-10T21:39:58.946Z,6.10
2019-06-10T21:42:25.563Z,6.80
2019-06-10T21:44:52.446Z,6.37
2019-06-10T21:47:19.322Z,6.50
2019-06-10T21:49:46.963Z,6.10
2019-06-10T21:52:14.297Z,5.77
2019-06-10T21:54:42.591Z,5.70
2019-06-10T21:57:09.828Z,6.23
2019-06-10T21:59:36.609Z,5.63
2019-06-10T22:02:03.723Z,6.53
2019-06-10T22:04:32.511Z,6.43
2019-06-10T22:06:58.839Z,6.40
2019-06-10T22:09:25.491Z,6.43
2019-06-10T22:11:52.944Z,6.30
2019-06-10T22:14:22.445Z,6.83
2019-06-10T22:16:50.917Z,6.37
2019-06-10T22:19:18.045Z,5.77
2019-06-10T22:21:44.787Z,6.23
2019-06-10T22:24:12.546Z,6.23
2019-06-10T22:26:39.617Z,6.03
2019-06-10T22:29:06.292Z,5.67
2019-06-10T22:31:32.884Z,6.93
2019-06-10T22:34:00.691Z,6.87
2019-06-10T22:36:28.222Z,6.53
2019-06-10T22:38:57.740Z,6.47
2019-06-10T22:41:23.576Z,5.73
2019-06-10T22:43:51.436Z,6.40
2019-06-10T22:46:18.772Z,6.27
2019-06-10T22:48:46.876Z,6.57
2019-06-10T22:51:14.061Z,5.83
2019-06-10T22:53:42.516Z,6.10
2019-06-10T22:56:09.464Z,5.83
2019-06-10T22:58:36.107Z,6.23
2019-06-10T23:01:04.267Z,7.10
2019-06-10T23:03:31.472Z,6.13
2019-06-10T23:05:59.466Z,5.53
2019-06-10T23:08:26.208Z,6.13
2019-06-10T23:10:53.778Z,5.83
2019-06-10T23:13:23.131Z,6.03
2019-06-10T23:15:53.500Z,5.73
2019-06-10T23:18:19.665Z,5.70
2019-06-10T23:20:46.415Z,6.20
2019-06-10T23:23:13.172Z,5.63
2019-06-10T23:25:39.836Z,6.30
2019-06-10T23:28:06.452Z,5.80
2019-06-10T23:30:33.135Z,5.63
2019-06-10T23:33:00.841Z,5.73
2019-06-10T23:35:27.691Z,6.37
2019-06-10T23:37:56.894Z,6.23
2019-06-10T23:40:23.379Z,5.57
2019-06-10T23:42:50.824Z,5.43
2019-06-10T23:45:17.638Z,5.93
2019-06-10T23:47:44.357Z,5.77
2019-06-10T23:50:12.924Z,6.00
2019-06-10T23:52:40.074Z,6.43
2019-06-10T23:55:07.727Z,5.97
2019-06-10T23:57:34.337Z,5.37
